Airfield :
LOGIN :

Register | Disclaimer

   EN    FR    IT 

 










Legend :    VFR   Marginal VFR   IFR   Intensive IFR   Very Intensive IFR
Visi :
Ceiling :
>= 8 km
>= 3000ft
5 to 8 km
1000 to 3000 ft
1500m to 5 km
500 to 1000 ft
800 to 1500m
200 to 500 ft
< 800m
< 200 ft
Symbols :   Thunderstorms  Fog  Heavy snow  Heavy precipitations  Wind > 20 kt
SIGMETs :     Misc.  Thunderstorms  Icing  Turbulence  Mountain Waves  Volcanic Ashes







- Airport Elevation : 158 ft
- IATA code : QAR


EHDL - Deelen Airbase

CURRENT METAR :
  • 161555Z AUTO 33004KT 250V020 9999 OVC033 15/12 Q1020 BLU

EXPIRED METARs :
  • 161525Z AUTO 33005KT 300V050 9999 FEW013 OVC032 15/12 Q1020 BLU
  • 161455Z AUTO 32006KT 290V030 9999 FEW012 OVC026 15/12 Q1020 BLU
  • 161425Z AUTO 33007KT 290V010 9999 FEW011 SCT013 BKN026 16/13 Q1020 GRN
  • 161355Z AUTO 01003KT 260V060 9999 FEW008 BKN009 BKN011 15/13 Q1020 GRN
  • 161325Z AUTO 34005KT 310V030 9999 -RA OVC007 14/13 Q1020 GRN

Expired Forecast.
No reported NOTAMs for that airfield.



MET'MAP, your aeronautical weather chart ! - Copyright ORBIFLY December 2007 - Disclaimer

ORBIFLY MET'MAP TEAM :

Programming & Development : Alexandra Zaïnal
Concept & Development : Baudouin d'Aumeries
Co-Development & Prog : Marc-Olivier Méhu
Technical & hardware support : Manuel Goepfert

Contact : metmap@orbifly.com




SOURCES & CREDITS :

   NOAA